sensor_id;sensor_type;location;lat;lon;timestamp;P1;durP1;ratioP1;P2;durP2;ratioP2
17177;SDS011;8704;52.006;4.374;2022-11-06T00:00:36;15.15;;;12.45;;
17177;SDS011;8704;52.006;4.374;2022-11-06T00:03:05;17.05;;;14.90;;
17177;SDS011;8704;52.006;4.374;2022-11-06T00:05:33;15.88;;;14.02;;
17177;SDS011;8704;52.006;4.374;2022-11-06T00:08:25;17.10;;;15.23;;
17177;SDS011;8704;52.006;4.374;2022-11-06T00:10:54;18.52;;;16.55;;
17177;SDS011;8704;52.006;4.374;2022-11-06T00:13:24;15.68;;;14.07;;
17177;SDS011;8704;52.006;4.374;2022-11-06T00:15:52;16.35;;;13.35;;
17177;SDS011;8704;52.006;4.374;2022-11-06T00:18:20;17.05;;;13.55;;
17177;SDS011;8704;52.006;4.374;2022-11-06T00:20:51;18.42;;;14.77;;
17177;SDS011;8704;52.006;4.374;2022-11-06T00:23:19;17.33;;;15.63;;
17177;SDS011;8704;52.006;4.374;2022-11-06T00:25:47;25.45;;;14.57;;
17177;SDS011;8704;52.006;4.374;2022-11-06T00:28:18;18.08;;;15.27;;
17177;SDS011;8704;52.006;4.374;2022-11-06T00:30:47;16.60;;;15.02;;
17177;SDS011;8704;52.006;4.374;2022-11-06T00:33:15;17.63;;;15.75;;
17177;SDS011;8704;52.006;4.374;2022-11-06T00:35:43;18.65;;;16.67;;
17177;SDS011;8704;52.006;4.374;2022-11-06T00:38:11;18.58;;;16.83;;
17177;SDS011;8704;52.006;4.374;2022-11-06T00:40:40;18.27;;;16.38;;
17177;SDS011;8704;52.006;4.374;2022-11-06T00:43:07;18.48;;;16.77;;
17177;SDS011;8704;52.006;4.374;2022-11-06T00:45:35;20.33;;;17.65;;
17177;SDS011;8704;52.006;4.374;2022-11-06T00:48:05;19.38;;;17.08;;
17177;SDS011;8704;52.006;4.374;2022-11-06T00:50:33;20.13;;;18.17;;
17177;SDS011;8704;52.006;4.374;2022-11-06T00:53:01;20.02;;;18.15;;
17177;SDS011;8704;52.006;4.374;2022-11-06T00:55:29;23.63;;;21.13;;
17177;SDS011;8704;52.006;4.374;2022-11-06T00:57:57;23.30;;;20.98;;
17177;SDS011;8704;52.006;4.374;2022-11-06T01:00:25;25.10;;;22.70;;
17177;SDS011;8704;52.006;4.374;2022-11-06T01:02:52;24.98;;;22.42;;
17177;SDS011;8704;52.006;4.374;2022-11-06T01:05:24;26.08;;;23.05;;
17177;SDS011;8704;52.006;4.374;2022-11-06T01:07:52;26.60;;;24.10;;
17177;SDS011;8704;52.006;4.374;2022-11-06T01:10:20;27.20;;;24.83;;
17177;SDS011;8704;52.006;4.374;2022-11-06T01:12:47;29.58;;;26.83;;
17177;SDS011;8704;52.006;4.374;2022-11-06T01:15:15;30.50;;;27.98;;
17177;SDS011;8704;52.006;4.374;2022-11-06T01:17:43;29.35;;;26.90;;
17177;SDS011;8704;52.006;4.374;2022-11-06T01:20:11;29.60;;;26.95;;
17177;SDS011;8704;52.006;4.374;2022-11-06T01:22:41;31.40;;;28.38;;
17177;SDS011;8704;52.006;4.374;2022-11-06T01:25:08;29.30;;;26.50;;
17177;SDS011;8704;52.006;4.374;2022-11-06T01:27:36;29.55;;;26.88;;
17177;SDS011;8704;52.006;4.374;2022-11-06T01:30:05;33.03;;;30.40;;
17177;SDS011;8704;52.006;4.374;2022-11-06T01:32:33;31.00;;;28.65;;
17177;SDS011;8704;52.006;4.374;2022-11-06T01:35:01;32.35;;;29.52;;
17177;SDS011;8704;52.006;4.374;2022-11-06T01:37:30;33.20;;;30.27;;
17177;SDS011;8704;52.006;4.374;2022-11-06T01:39:59;32.72;;;29.70;;
17177;SDS011;8704;52.006;4.374;2022-11-06T01:42:27;32.17;;;29.55;;
17177;SDS011;8704;52.006;4.374;2022-11-06T01:45:04;34.83;;;31.80;;
17177;SDS011;8704;52.006;4.374;2022-11-06T01:47:46;34.08;;;31.15;;
17177;SDS011;8704;52.006;4.374;2022-11-06T01:50:15;34.85;;;31.80;;
17177;SDS011;8704;52.006;4.374;2022-11-06T01:52:44;38.25;;;34.90;;
17177;SDS011;8704;52.006;4.374;2022-11-06T01:55:16;38.80;;;35.67;;
17177;SDS011;8704;52.006;4.374;2022-11-06T01:57:48;37.50;;;34.47;;
17177;SDS011;8704;52.006;4.374;2022-11-06T02:00:18;43.30;;;39.65;;
17177;SDS011;8704;52.006;4.374;2022-11-06T02:02:47;41.83;;;38.42;;
17177;SDS011;8704;52.006;4.374;2022-11-06T02:05:16;41.65;;;38.13;;
17177;SDS011;8704;52.006;4.374;2022-11-06T02:07:44;41.30;;;37.95;;
17177;SDS011;8704;52.006;4.374;2022-11-06T02:10:12;41.63;;;38.38;;
17177;SDS011;8704;52.006;4.374;2022-11-06T02:12:46;42.13;;;38.35;;
17177;SDS011;8704;52.006;4.374;2022-11-06T02:15:24;42.67;;;39.10;;
17177;SDS011;8704;52.006;4.374;2022-11-06T02:18:09;42.25;;;39.05;;
17177;SDS011;8704;52.006;4.374;2022-11-06T02:20:46;39.47;;;36.35;;
17177;SDS011;8704;52.006;4.374;2022-11-06T02:23:32;39.10;;;36.28;;
17177;SDS011;8704;52.006;4.374;2022-11-06T02:26:12;38.30;;;35.10;;
17177;SDS011;8704;52.006;4.374;2022-11-06T02:28:56;41.63;;;38.25;;
17177;SDS011;8704;52.006;4.374;2022-11-06T02:31:33;40.30;;;36.80;;
17177;SDS011;8704;52.006;4.374;2022-11-06T02:34:04;43.00;;;39.60;;
17177;SDS011;8704;52.006;4.374;2022-11-06T02:36:36;41.08;;;37.95;;
17177;SDS011;8704;52.006;4.374;2022-11-06T02:39:11;39.92;;;36.58;;
17177;SDS011;8704;52.006;4.374;2022-11-06T02:41:43;38.88;;;35.70;;
17177;SDS011;8704;52.006;4.374;2022-11-06T02:44:16;41.03;;;37.65;;
17177;SDS011;8704;52.006;4.374;2022-11-06T02:46:48;40.25;;;36.85;;
17177;SDS011;8704;52.006;4.374;2022-11-06T02:49:21;41.47;;;37.30;;
17177;SDS011;8704;52.006;4.374;2022-11-06T02:51:54;43.95;;;40.53;;
17177;SDS011;8704;52.006;4.374;2022-11-06T02:54:25;46.88;;;42.78;;
17177;SDS011;8704;52.006;4.374;2022-11-06T02:56:58;43.95;;;40.35;;
17177;SDS011;8704;52.006;4.374;2022-11-06T02:59:32;45.13;;;41.45;;
17177;SDS011;8704;52.006;4.374;2022-11-06T03:02:06;47.92;;;43.85;;
17177;SDS011;8704;52.006;4.374;2022-11-06T03:04:40;45.95;;;41.97;;
17177;SDS011;8704;52.006;4.374;2022-11-06T03:07:15;44.63;;;40.80;;
17177;SDS011;8704;52.006;4.374;2022-11-06T03:09:48;45.85;;;41.88;;
17177;SDS011;8704;52.006;4.374;2022-11-06T03:12:18;44.10;;;40.17;;
17177;SDS011;8704;52.006;4.374;2022-11-06T03:14:54;45.25;;;41.67;;
17177;SDS011;8704;52.006;4.374;2022-11-06T03:17:28;40.53;;;37.25;;
17177;SDS011;8704;52.006;4.374;2022-11-06T03:20:05;43.85;;;40.22;;
17177;SDS011;8704;52.006;4.374;2022-11-06T03:22:45;44.40;;;40.63;;
17177;SDS011;8704;52.006;4.374;2022-11-06T03:25:19;45.15;;;41.45;;
17177;SDS011;8704;52.006;4.374;2022-11-06T03:27:51;45.22;;;41.70;;
17177;SDS011;8704;52.006;4.374;2022-11-06T03:30:27;43.35;;;39.58;;
17177;SDS011;8704;52.006;4.374;2022-11-06T03:32:56;46.80;;;42.90;;
17177;SDS011;8704;52.006;4.374;2022-11-06T03:35:29;47.03;;;43.20;;
17177;SDS011;8704;52.006;4.374;2022-11-06T03:38:02;47.05;;;42.83;;
17177;SDS011;8704;52.006;4.374;2022-11-06T03:40:36;48.38;;;44.90;;
17177;SDS011;8704;52.006;4.374;2022-11-06T03:43:08;49.80;;;45.78;;
17177;SDS011;8704;52.006;4.374;2022-11-06T03:45:41;44.88;;;40.85;;
17177;SDS011;8704;52.006;4.374;2022-11-06T03:48:12;46.28;;;42.25;;
17177;SDS011;8704;52.006;4.374;2022-11-06T03:50:47;45.97;;;42.08;;
17177;SDS011;8704;52.006;4.374;2022-11-06T03:53:23;49.88;;;45.92;;
17177;SDS011;8704;52.006;4.374;2022-11-06T03:55:56;51.42;;;47.38;;
17177;SDS011;8704;52.006;4.374;2022-11-06T03:58:30;53.45;;;49.15;;
17177;SDS011;8704;52.006;4.374;2022-11-06T04:01:06;45.72;;;42.03;;
17177;SDS011;8704;52.006;4.374;2022-11-06T04:03:36;47.28;;;43.10;;
17177;SDS011;8704;52.006;4.374;2022-11-06T04:06:10;48.25;;;44.05;;
17177;SDS011;8704;52.006;4.374;2022-11-06T04:08:43;45.78;;;41.50;;
17177;SDS011;8704;52.006;4.374;2022-11-06T04:11:32;51.88;;;47.50;;
17177;SDS011;8704;52.006;4.374;2022-11-06T04:14:21;46.25;;;42.00;;
17177;SDS011;8704;52.006;4.374;2022-11-06T04:16:54;42.37;;;38.20;;
17177;SDS011;8704;52.006;4.374;2022-11-06T04:19:25;44.28;;;40.33;;
17177;SDS011;8704;52.006;4.374;2022-11-06T04:22:03;43.65;;;39.80;;
17177;SDS011;8704;52.006;4.374;2022-11-06T04:24:43;44.33;;;40.63;;
17177;SDS011;8704;52.006;4.374;2022-11-06T04:27:37;45.95;;;41.65;;
17177;SDS011;8704;52.006;4.374;2022-11-06T04:30:14;49.65;;;45.05;;
17177;SDS011;8704;52.006;4.374;2022-11-06T04:32:49;45.40;;;41.17;;
17177;SDS011;8704;52.006;4.374;2022-11-06T04:37:59;46.42;;;42.42;;
17177;SDS011;8704;52.006;4.374;2022-11-06T04:40:36;46.92;;;42.90;;
17177;SDS011;8704;52.006;4.374;2022-11-06T04:43:14;45.25;;;41.53;;
17177;SDS011;8704;52.006;4.374;2022-11-06T04:45:49;49.00;;;44.42;;
17177;SDS011;8704;52.006;4.374;2022-11-06T04:48:22;45.42;;;41.83;;
17177;SDS011;8704;52.006;4.374;2022-11-06T04:50:52;44.80;;;41.10;;
17177;SDS011;8704;52.006;4.374;2022-11-06T04:53:21;46.28;;;42.47;;
17177;SDS011;8704;52.006;4.374;2022-11-06T04:55:52;45.85;;;41.63;;
17177;SDS011;8704;52.006;4.374;2022-11-06T04:58:22;44.97;;;41.53;;
17177;SDS011;8704;52.006;4.374;2022-11-06T05:00:50;44.95;;;41.30;;
17177;SDS011;8704;52.006;4.374;2022-11-06T05:03:18;41.90;;;38.50;;
17177;SDS011;8704;52.006;4.374;2022-11-06T05:05:48;44.85;;;40.88;;
17177;SDS011;8704;52.006;4.374;2022-11-06T05:08:16;47.88;;;44.00;;
17177;SDS011;8704;52.006;4.374;2022-11-06T05:10:46;43.50;;;40.20;;
17177;SDS011;8704;52.006;4.374;2022-11-06T05:13:14;47.17;;;43.50;;
17177;SDS011;8704;52.006;4.374;2022-11-06T05:15:42;46.63;;;43.28;;
17177;SDS011;8704;52.006;4.374;2022-11-06T05:18:10;47.25;;;43.50;;
17177;SDS011;8704;52.006;4.374;2022-11-06T05:20:38;46.90;;;42.83;;
17177;SDS011;8704;52.006;4.374;2022-11-06T05:23:08;46.10;;;42.67;;
17177;SDS011;8704;52.006;4.374;2022-11-06T05:25:35;47.92;;;44.13;;
17177;SDS011;8704;52.006;4.374;2022-11-06T05:28:06;48.42;;;44.60;;
17177;SDS011;8704;52.006;4.374;2022-11-06T05:30:35;46.45;;;42.97;;
17177;SDS011;8704;52.006;4.374;2022-11-06T05:33:04;42.58;;;39.45;;
17177;SDS011;8704;52.006;4.374;2022-11-06T05:35:31;40.97;;;38.17;;
17177;SDS011;8704;52.006;4.374;2022-11-06T05:38:00;43.42;;;40.30;;
17177;SDS011;8704;52.006;4.374;2022-11-06T05:40:30;40.65;;;37.92;;
17177;SDS011;8704;52.006;4.374;2022-11-06T05:42:58;43.35;;;40.13;;
17177;SDS011;8704;52.006;4.374;2022-11-06T05:45:26;40.08;;;37.38;;
17177;SDS011;8704;52.006;4.374;2022-11-06T05:47:54;43.08;;;40.10;;
17177;SDS011;8704;52.006;4.374;2022-11-06T05:50:22;46.45;;;43.05;;
17177;SDS011;8704;52.006;4.374;2022-11-06T05:52:50;43.28;;;40.00;;
17177;SDS011;8704;52.006;4.374;2022-11-06T05:55:18;45.65;;;42.58;;
17177;SDS011;8704;52.006;4.374;2022-11-06T05:57:50;44.95;;;41.90;;
17177;SDS011;8704;52.006;4.374;2022-11-06T06:00:18;46.78;;;43.08;;
17177;SDS011;8704;52.006;4.374;2022-11-06T06:02:46;41.78;;;38.88;;
17177;SDS011;8704;52.006;4.374;2022-11-06T06:05:14;45.22;;;42.00;;
17177;SDS011;8704;52.006;4.374;2022-11-06T06:07:42;45.67;;;42.70;;
17177;SDS011;8704;52.006;4.374;2022-11-06T06:10:10;43.22;;;40.28;;
17177;SDS011;8704;52.006;4.374;2022-11-06T06:12:38;44.80;;;41.33;;
17177;SDS011;8704;52.006;4.374;2022-11-06T06:15:08;44.53;;;41.30;;
17177;SDS011;8704;52.006;4.374;2022-11-06T06:17:37;45.88;;;42.67;;
17177;SDS011;8704;52.006;4.374;2022-11-06T06:20:05;43.35;;;39.80;;
17177;SDS011;8704;52.006;4.374;2022-11-06T06:22:34;43.72;;;39.95;;
17177;SDS011;8704;52.006;4.374;2022-11-06T06:25:02;43.03;;;39.50;;
17177;SDS011;8704;52.006;4.374;2022-11-06T06:27:39;45.88;;;42.45;;
17177;SDS011;8704;52.006;4.374;2022-11-06T06:30:09;44.92;;;41.72;;
17177;SDS011;8704;52.006;4.374;2022-11-06T06:32:38;43.42;;;40.13;;
17177;SDS011;8704;52.006;4.374;2022-11-06T06:35:06;44.92;;;41.38;;
17177;SDS011;8704;52.006;4.374;2022-11-06T06:37:34;39.45;;;36.88;;
17177;SDS011;8704;52.006;4.374;2022-11-06T06:40:03;42.08;;;38.95;;
17177;SDS011;8704;52.006;4.374;2022-11-06T06:42:32;40.88;;;37.47;;
17177;SDS011;8704;52.006;4.374;2022-11-06T06:45:00;42.08;;;39.10;;
17177;SDS011;8704;52.006;4.374;2022-11-06T06:47:29;42.80;;;39.08;;
17177;SDS011;8704;52.006;4.374;2022-11-06T06:49:57;42.10;;;38.78;;
17177;SDS011;8704;52.006;4.374;2022-11-06T06:52:25;41.75;;;38.80;;
17177;SDS011;8704;52.006;4.374;2022-11-06T06:54:53;40.83;;;37.70;;
17177;SDS011;8704;52.006;4.374;2022-11-06T06:57:20;39.03;;;35.75;;
17177;SDS011;8704;52.006;4.374;2022-11-06T06:59:48;33.75;;;31.13;;
17177;SDS011;8704;52.006;4.374;2022-11-06T07:02:17;33.50;;;31.05;;
17177;SDS011;8704;52.006;4.374;2022-11-06T07:04:46;33.58;;;30.70;;
17177;SDS011;8704;52.006;4.374;2022-11-06T07:07:14;30.80;;;28.52;;
17177;SDS011;8704;52.006;4.374;2022-11-06T07:09:42;30.15;;;27.58;;
17177;SDS011;8704;52.006;4.374;2022-11-06T07:12:10;31.15;;;28.52;;
17177;SDS011;8704;52.006;4.374;2022-11-06T07:14:38;29.13;;;26.63;;
17177;SDS011;8704;52.006;4.374;2022-11-06T07:17:06;31.42;;;28.98;;
17177;SDS011;8704;52.006;4.374;2022-11-06T07:19:34;25.08;;;23.08;;
17177;SDS011;8704;52.006;4.374;2022-11-06T07:22:03;25.13;;;23.08;;
17177;SDS011;8704;52.006;4.374;2022-11-06T07:24:31;27.63;;;25.55;;
17177;SDS011;8704;52.006;4.374;2022-11-06T07:26:59;27.77;;;25.58;;
17177;SDS011;8704;52.006;4.374;2022-11-06T07:29:27;25.35;;;23.45;;
17177;SDS011;8704;52.006;4.374;2022-11-06T07:31:55;23.08;;;21.05;;
17177;SDS011;8704;52.006;4.374;2022-11-06T07:34:23;18.73;;;16.63;;
17177;SDS011;8704;52.006;4.374;2022-11-06T07:36:51;21.77;;;19.73;;
17177;SDS011;8704;52.006;4.374;2022-11-06T07:39:20;23.70;;;21.73;;
17177;SDS011;8704;52.006;4.374;2022-11-06T07:41:48;25.08;;;23.17;;
17177;SDS011;8704;52.006;4.374;2022-11-06T07:44:16;26.42;;;24.35;;
17177;SDS011;8704;52.006;4.374;2022-11-06T07:46:44;25.73;;;23.58;;
17177;SDS011;8704;52.006;4.374;2022-11-06T07:49:12;26.15;;;23.90;;
17177;SDS011;8704;52.006;4.374;2022-11-06T07:51:41;28.80;;;26.85;;
17177;SDS011;8704;52.006;4.374;2022-11-06T07:54:09;21.75;;;20.05;;
17177;SDS011;8704;52.006;4.374;2022-11-06T07:56:39;21.88;;;19.98;;
17177;SDS011;8704;52.006;4.374;2022-11-06T07:59:07;18.90;;;17.30;;
17177;SDS011;8704;52.006;4.374;2022-11-06T08:01:35;21.60;;;19.67;;
17177;SDS011;8704;52.006;4.374;2022-11-06T08:04:03;22.90;;;20.65;;
17177;SDS011;8704;52.006;4.374;2022-11-06T08:06:31;26.40;;;24.40;;
17177;SDS011;8704;52.006;4.374;2022-11-06T08:08:59;25.23;;;23.35;;
17177;SDS011;8704;52.006;4.374;2022-11-06T08:11:27;24.90;;;22.55;;
17177;SDS011;8704;52.006;4.374;2022-11-06T08:13:56;28.63;;;26.25;;
17177;SDS011;8704;52.006;4.374;2022-11-06T08:16:26;29.73;;;27.63;;
17177;SDS011;8704;52.006;4.374;2022-11-06T08:18:54;27.58;;;25.35;;
17177;SDS011;8704;52.006;4.374;2022-11-06T08:21:22;23.17;;;21.30;;
17177;SDS011;8704;52.006;4.374;2022-11-06T08:23:50;27.83;;;25.45;;
17177;SDS011;8704;52.006;4.374;2022-11-06T08:26:18;27.77;;;25.45;;
17177;SDS011;8704;52.006;4.374;2022-11-06T08:28:46;28.08;;;26.17;;
17177;SDS011;8704;52.006;4.374;2022-11-06T08:31:15;29.70;;;27.23;;
17177;SDS011;8704;52.006;4.374;2022-11-06T08:33:43;26.25;;;24.05;;
17177;SDS011;8704;52.006;4.374;2022-11-06T08:36:11;28.00;;;25.65;;
17177;SDS011;8704;52.006;4.374;2022-11-06T08:38:39;27.27;;;25.08;;
17177;SDS011;8704;52.006;4.374;2022-11-06T08:41:08;32.22;;;29.10;;
17177;SDS011;8704;52.006;4.374;2022-11-06T08:43:38;32.78;;;29.67;;
17177;SDS011;8704;52.006;4.374;2022-11-06T08:46:07;31.42;;;29.15;;
17177;SDS011;8704;52.006;4.374;2022-11-06T08:48:37;31.23;;;28.65;;
17177;SDS011;8704;52.006;4.374;2022-11-06T08:51:05;32.92;;;30.40;;
17177;SDS011;8704;52.006;4.374;2022-11-06T08:53:33;34.92;;;32.83;;
17177;SDS011;8704;52.006;4.374;2022-11-06T08:56:02;32.17;;;29.90;;
17177;SDS011;8704;52.006;4.374;2022-11-06T08:58:30;30.80;;;28.33;;
17177;SDS011;8704;52.006;4.374;2022-11-06T09:00:58;30.55;;;28.40;;
17177;SDS011;8704;52.006;4.374;2022-11-06T09:03:26;26.70;;;24.48;;
17177;SDS011;8704;52.006;4.374;2022-11-06T09:05:55;30.33;;;27.98;;
17177;SDS011;8704;52.006;4.374;2022-11-06T09:08:23;28.63;;;26.63;;
17177;SDS011;8704;52.006;4.374;2022-11-06T09:10:51;31.25;;;29.05;;
17177;SDS011;8704;52.006;4.374;2022-11-06T09:13:24;29.65;;;27.65;;
17177;SDS011;8704;52.006;4.374;2022-11-06T09:15:52;29.17;;;26.80;;
17177;SDS011;8704;52.006;4.374;2022-11-06T09:18:20;23.13;;;21.20;;
17177;SDS011;8704;52.006;4.374;2022-11-06T09:20:48;26.05;;;24.08;;
17177;SDS011;8704;52.006;4.374;2022-11-06T09:23:17;24.00;;;21.80;;
17177;SDS011;8704;52.006;4.374;2022-11-06T09:25:45;23.17;;;20.65;;
17177;SDS011;8704;52.006;4.374;2022-11-06T09:28:13;19.65;;;18.10;;
17177;SDS011;8704;52.006;4.374;2022-11-06T09:30:41;22.40;;;19.70;;
17177;SDS011;8704;52.006;4.374;2022-11-06T09:33:09;21.63;;;19.80;;
17177;SDS011;8704;52.006;4.374;2022-11-06T09:35:39;22.33;;;20.35;;
17177;SDS011;8704;52.006;4.374;2022-11-06T09:38:09;18.05;;;16.38;;
17177;SDS011;8704;52.006;4.374;2022-11-06T09:40:39;15.25;;;13.82;;
17177;SDS011;8704;52.006;4.374;2022-11-06T09:43:13;20.58;;;18.67;;
17177;SDS011;8704;52.006;4.374;2022-11-06T09:46:17;19.00;;;17.20;;
17177;SDS011;8704;52.006;4.374;2022-11-06T09:48:49;13.98;;;12.68;;
17177;SDS011;8704;52.006;4.374;2022-11-06T09:51:26;20.75;;;10.55;;
17177;SDS011;8704;52.006;4.374;2022-11-06T09:54:00;12.77;;;11.43;;
17177;SDS011;8704;52.006;4.374;2022-11-06T09:56:35;15.52;;;14.00;;
17177;SDS011;8704;52.006;4.374;2022-11-06T09:59:08;16.10;;;14.05;;
17177;SDS011;8704;52.006;4.374;2022-11-06T10:01:41;17.27;;;15.88;;
17177;SDS011;8704;52.006;4.374;2022-11-06T10:04:17;20.85;;;19.10;;
17177;SDS011;8704;52.006;4.374;2022-11-06T10:06:53;22.10;;;17.88;;
17177;SDS011;8704;52.006;4.374;2022-11-06T10:09:21;14.82;;;13.70;;
17177;SDS011;8704;52.006;4.374;2022-11-06T10:11:53;18.17;;;14.15;;
17177;SDS011;8704;52.006;4.374;2022-11-06T10:14:35;11.80;;;10.43;;
17177;SDS011;8704;52.006;4.374;2022-11-06T10:17:15;16.02;;;11.95;;
17177;SDS011;8704;52.006;4.374;2022-11-06T10:19:54;14.63;;;13.30;;
17177;SDS011;8704;52.006;4.374;2022-11-06T10:22:27;13.75;;;12.52;;
17177;SDS011;8704;52.006;4.374;2022-11-06T10:25:04;14.90;;;13.32;;
17177;SDS011;8704;52.006;4.374;2022-11-06T10:27:48;16.48;;;14.82;;
17177;SDS011;8704;52.006;4.374;2022-11-06T10:30:27;18.35;;;16.48;;
17177;SDS011;8704;52.006;4.374;2022-11-06T10:33:06;14.88;;;12.25;;
17177;SDS011;8704;52.006;4.374;2022-11-06T10:35:45;17.23;;;15.55;;
17177;SDS011;8704;52.006;4.374;2022-11-06T10:38:17;13.00;;;11.25;;
17177;SDS011;8704;52.006;4.374;2022-11-06T10:43:22;15.10;;;13.45;;
17177;SDS011;8704;52.006;4.374;2022-11-06T10:45:57;16.60;;;15.32;;
17177;SDS011;8704;52.006;4.374;2022-11-06T10:48:29;19.90;;;17.92;;
17177;SDS011;8704;52.006;4.374;2022-11-06T10:51:07;21.90;;;20.17;;
17177;SDS011;8704;52.006;4.374;2022-11-06T10:54:02;21.20;;;19.35;;
17177;SDS011;8704;52.006;4.374;2022-11-06T10:56:41;20.30;;;18.60;;
17177;SDS011;8704;52.006;4.374;2022-11-06T10:59:18;22.13;;;20.52;;
17177;SDS011;8704;52.006;4.374;2022-11-06T11:01:46;25.08;;;23.00;;
17177;SDS011;8704;52.006;4.374;2022-11-06T11:04:15;21.77;;;20.30;;
17177;SDS011;8704;52.006;4.374;2022-11-06T11:06:43;18.25;;;16.55;;
17177;SDS011;8704;52.006;4.374;2022-11-06T11:11:58;19.35;;;17.92;;
17177;SDS011;8704;52.006;4.374;2022-11-06T11:14:29;20.20;;;18.42;;
17177;SDS011;8704;52.006;4.374;2022-11-06T11:16:58;19.67;;;17.90;;
17177;SDS011;8704;52.006;4.374;2022-11-06T11:19:32;17.00;;;15.48;;
17177;SDS011;8704;52.006;4.374;2022-11-06T11:22:02;20.15;;;18.35;;
17177;SDS011;8704;52.006;4.374;2022-11-06T11:24:31;19.08;;;17.05;;
17177;SDS011;8704;52.006;4.374;2022-11-06T11:27:00;23.27;;;20.90;;
17177;SDS011;8704;52.006;4.374;2022-11-06T11:29:32;21.98;;;20.27;;
17177;SDS011;8704;52.006;4.374;2022-11-06T11:32:07;20.42;;;18.73;;
17177;SDS011;8704;52.006;4.374;2022-11-06T11:34:42;22.30;;;20.27;;
17177;SDS011;8704;52.006;4.374;2022-11-06T11:37:22;23.45;;;21.27;;
17177;SDS011;8704;52.006;4.374;2022-11-06T11:39:51;22.38;;;20.38;;
17177;SDS011;8704;52.006;4.374;2022-11-06T11:42:23;21.70;;;19.55;;
17177;SDS011;8704;52.006;4.374;2022-11-06T11:45:12;25.85;;;23.33;;
17177;SDS011;8704;52.006;4.374;2022-11-06T11:47:45;24.55;;;22.90;;
17177;SDS011;8704;52.006;4.374;2022-11-06T11:53:02;21.05;;;19.25;;
17177;SDS011;8704;52.006;4.374;2022-11-06T11:55:36;24.13;;;22.27;;
17177;SDS011;8704;52.006;4.374;2022-11-06T11:58:16;21.63;;;19.85;;
17177;SDS011;8704;52.006;4.374;2022-11-06T12:00:58;22.00;;;20.35;;
17177;SDS011;8704;52.006;4.374;2022-11-06T12:03:30;23.77;;;22.00;;
17177;SDS011;8704;52.006;4.374;2022-11-06T12:06:04;24.27;;;22.27;;
17177;SDS011;8704;52.006;4.374;2022-11-06T12:08:35;24.77;;;22.50;;
17177;SDS011;8704;52.006;4.374;2022-11-06T12:11:06;21.35;;;19.55;;
17177;SDS011;8704;52.006;4.374;2022-11-06T12:13:34;21.92;;;20.23;;
17177;SDS011;8704;52.006;4.374;2022-11-06T12:16:04;18.58;;;16.77;;
17177;SDS011;8704;52.006;4.374;2022-11-06T12:18:37;20.60;;;18.90;;
17177;SDS011;8704;52.006;4.374;2022-11-06T12:21:10;19.42;;;17.42;;
17177;SDS011;8704;52.006;4.374;2022-11-06T12:23:45;21.40;;;19.55;;
17177;SDS011;8704;52.006;4.374;2022-11-06T12:26:19;20.90;;;18.98;;
17177;SDS011;8704;52.006;4.374;2022-11-06T12:28:53;21.70;;;20.13;;
17177;SDS011;8704;52.006;4.374;2022-11-06T12:31:34;22.77;;;21.05;;
17177;SDS011;8704;52.006;4.374;2022-11-06T12:34:06;19.20;;;17.52;;
17177;SDS011;8704;52.006;4.374;2022-11-06T12:36:43;20.35;;;18.35;;
17177;SDS011;8704;52.006;4.374;2022-11-06T12:39:17;19.92;;;18.05;;
17177;SDS011;8704;52.006;4.374;2022-11-06T12:41:48;22.08;;;20.17;;
17177;SDS011;8704;52.006;4.374;2022-11-06T12:44:18;16.45;;;15.10;;
17177;SDS011;8704;52.006;4.374;2022-11-06T12:46:49;17.30;;;15.82;;
17177;SDS011;8704;52.006;4.374;2022-11-06T12:49:50;19.15;;;17.48;;
17177;SDS011;8704;52.006;4.374;2022-11-06T12:52:41;18.55;;;17.08;;
17177;SDS011;8704;52.006;4.374;2022-11-06T12:55:32;17.67;;;16.17;;
17177;SDS011;8704;52.006;4.374;2022-11-06T12:58:08;15.82;;;14.43;;
17177;SDS011;8704;52.006;4.374;2022-11-06T13:00:55;16.02;;;14.57;;
17177;SDS011;8704;52.006;4.374;2022-11-06T13:03:36;15.52;;;14.20;;
17177;SDS011;8704;52.006;4.374;2022-11-06T13:06:24;18.08;;;16.35;;
17177;SDS011;8704;52.006;4.374;2022-11-06T13:09:03;15.85;;;13.68;;
17177;SDS011;8704;52.006;4.374;2022-11-06T13:11:39;16.88;;;15.55;;
17177;SDS011;8704;52.006;4.374;2022-11-06T13:14:13;17.42;;;15.68;;
17177;SDS011;8704;52.006;4.374;2022-11-06T13:16:50;16.27;;;14.98;;
17177;SDS011;8704;52.006;4.374;2022-11-06T13:19:32;18.10;;;16.70;;
17177;SDS011;8704;52.006;4.374;2022-11-06T13:22:11;18.50;;;16.90;;
17177;SDS011;8704;52.006;4.374;2022-11-06T13:24:47;17.42;;;15.77;;
17177;SDS011;8704;52.006;4.374;2022-11-06T13:27:24;23.33;;;21.20;;
17177;SDS011;8704;52.006;4.374;2022-11-06T13:29:58;21.45;;;19.42;;
17177;SDS011;8704;52.006;4.374;2022-11-06T13:32:31;22.80;;;20.38;;
17177;SDS011;8704;52.006;4.374;2022-11-06T13:35:04;20.60;;;18.63;;
17177;SDS011;8704;52.006;4.374;2022-11-06T13:37:38;19.20;;;17.38;;
17177;SDS011;8704;52.006;4.374;2022-11-06T13:40:15;22.83;;;20.90;;
17177;SDS011;8704;52.006;4.374;2022-11-06T13:42:50;21.33;;;19.10;;
17177;SDS011;8704;52.006;4.374;2022-11-06T13:45:26;15.73;;;14.48;;
17177;SDS011;8704;52.006;4.374;2022-11-06T13:48:02;16.48;;;14.88;;
17177;SDS011;8704;52.006;4.374;2022-11-06T13:50:45;18.52;;;16.92;;
17177;SDS011;8704;52.006;4.374;2022-11-06T13:53:19;16.77;;;15.32;;
17177;SDS011;8704;52.006;4.374;2022-11-06T13:55:57;17.65;;;16.10;;
17177;SDS011;8704;52.006;4.374;2022-11-06T13:58:46;23.13;;;20.63;;
17177;SDS011;8704;52.006;4.374;2022-11-06T14:01:39;23.63;;;21.70;;
17177;SDS011;8704;52.006;4.374;2022-11-06T14:04:30;22.73;;;21.00;;
17177;SDS011;8704;52.006;4.374;2022-11-06T14:07:10;25.70;;;23.80;;
17177;SDS011;8704;52.006;4.374;2022-11-06T14:09:40;20.10;;;18.58;;
17177;SDS011;8704;52.006;4.374;2022-11-06T14:12:13;22.83;;;20.77;;
17177;SDS011;8704;52.006;4.374;2022-11-06T14:14:44;20.73;;;19.00;;
17177;SDS011;8704;52.006;4.374;2022-11-06T14:17:18;22.15;;;20.60;;
17177;SDS011;8704;52.006;4.374;2022-11-06T14:19:59;21.92;;;20.00;;
17177;SDS011;8704;52.006;4.374;2022-11-06T14:22:32;25.25;;;23.30;;
17177;SDS011;8704;52.006;4.374;2022-11-06T14:28:04;17.20;;;15.60;;
17177;SDS011;8704;52.006;4.374;2022-11-06T14:30:37;17.60;;;16.17;;
17177;SDS011;8704;52.006;4.374;2022-11-06T14:36:33;16.95;;;15.60;;
17177;SDS011;8704;52.006;4.374;2022-11-06T14:39:04;12.57;;;11.57;;
17177;SDS011;8704;52.006;4.374;2022-11-06T14:41:50;13.45;;;12.45;;
17177;SDS011;8704;52.006;4.374;2022-11-06T14:44:27;14.65;;;13.35;;
17177;SDS011;8704;52.006;4.374;2022-11-06T14:47:23;11.90;;;10.77;;
17177;SDS011;8704;52.006;4.374;2022-11-06T14:49:54;14.90;;;13.70;;
17177;SDS011;8704;52.006;4.374;2022-11-06T14:52:25;18.20;;;16.77;;
17177;SDS011;8704;52.006;4.374;2022-11-06T14:54:56;14.38;;;13.30;;
17177;SDS011;8704;52.006;4.374;2022-11-06T14:57:41;16.52;;;15.27;;
17177;SDS011;8704;52.006;4.374;2022-11-06T15:00:14;15.07;;;13.85;;
17177;SDS011;8704;52.006;4.374;2022-11-06T15:03:03;17.08;;;15.88;;
17177;SDS011;8704;52.006;4.374;2022-11-06T15:05:34;21.23;;;19.77;;
17177;SDS011;8704;52.006;4.374;2022-11-06T15:08:07;19.85;;;18.48;;
17177;SDS011;8704;52.006;4.374;2022-11-06T15:10:47;15.57;;;14.30;;
17177;SDS011;8704;52.006;4.374;2022-11-06T15:13:27;15.48;;;14.00;;
17177;SDS011;8704;52.006;4.374;2022-11-06T15:16:02;16.48;;;15.05;;
17177;SDS011;8704;52.006;4.374;2022-11-06T15:18:37;17.70;;;16.10;;
17177;SDS011;8704;52.006;4.374;2022-11-06T15:21:09;15.88;;;14.27;;